createdAt,value
2019-03-03T00:01:28.689Z,19.77
2019-03-03T00:03:54.847Z,20.23
2019-03-03T00:06:21.007Z,20.37
2019-03-03T00:08:47.196Z,19.27
2019-03-03T00:11:13.358Z,20.17
2019-03-03T00:13:39.516Z,21.70
2019-03-03T00:16:05.712Z,20.23
2019-03-03T00:18:31.977Z,18.20
2019-03-03T00:20:58.147Z,20.00
2019-03-03T00:23:24.334Z,19.13
2019-03-03T00:25:50.488Z,18.33
2019-03-03T00:28:16.648Z,18.17
2019-03-03T00:30:42.848Z,18.17
2019-03-03T00:33:09.003Z,18.43
2019-03-03T00:35:35.167Z,18.80
2019-03-03T00:38:18.121Z,18.17
2019-03-03T00:40:52.189Z,16.77
2019-03-03T00:43:38.309Z,17.30
2019-03-03T00:46:21.163Z,17.43
2019-03-03T00:48:49.247Z,14.03
2019-03-03T00:51:23.099Z,16.50
2019-03-03T00:53:53.747Z,15.83
2019-03-03T00:56:33.883Z,16.33
2019-03-03T00:59:10.628Z,17.27
2019-03-03T01:01:38.805Z,16.47
2019-03-03T01:04:23.176Z,16.37
2019-03-03T01:07:02.916Z,15.07
2019-03-03T01:09:39.610Z,13.50
2019-03-03T01:12:08.072Z,14.03
2019-03-03T01:14:52.668Z,14.77
2019-03-03T01:17:35.519Z,13.53
2019-03-03T01:20:03.602Z,12.03
2019-03-03T01:22:34.211Z,12.70
2019-03-03T01:25:00.373Z,11.83
2019-03-03T01:27:26.658Z,13.00
2019-03-03T01:29:52.916Z,12.57
2019-03-03T01:32:19.073Z,12.60
2019-03-03T01:34:45.361Z,13.80
2019-03-03T01:37:11.626Z,12.97
2019-03-03T01:39:37.779Z,14.17
2019-03-03T01:42:04.080Z,12.63
2019-03-03T01:44:30.242Z,14.57
2019-03-03T01:46:56.501Z,13.87
2019-03-03T01:49:22.702Z,14.80
2019-03-03T01:51:48.865Z,14.60
2019-03-03T01:54:15.125Z,14.90
2019-03-03T01:56:41.416Z,14.43
2019-03-03T01:59:07.694Z,15.07
2019-03-03T02:01:33.858Z,15.20
2019-03-03T02:04:00.057Z,14.23
2019-03-03T02:06:26.219Z,15.17
2019-03-03T02:08:52.373Z,15.93
2019-03-03T02:11:18.563Z,15.03
2019-03-03T02:13:44.726Z,13.97
2019-03-03T02:16:11.177Z,15.10
2019-03-03T02:18:37.368Z,14.37
2019-03-03T02:21:03.531Z,14.87
2019-03-03T02:23:29.679Z,14.13
2019-03-03T02:25:55.863Z,12.07
2019-03-03T02:28:22.023Z,10.57
2019-03-03T02:30:48.273Z,9.33
2019-03-03T02:33:14.586Z,8.33
2019-03-03T02:35:40.750Z,7.97
2019-03-03T02:38:06.902Z,8.57
2019-03-03T02:40:33.198Z,8.87
2019-03-03T02:42:59.448Z,7.77
2019-03-03T02:45:25.607Z,8.07
2019-03-03T02:47:51.805Z,8.30
2019-03-03T02:50:17.968Z,8.47
2019-03-03T02:52:44.317Z,8.40
2019-03-03T02:55:16.241Z,9.60
2019-03-03T02:57:42.787Z,7.97
2019-03-03T03:00:23.422Z,8.30
2019-03-03T03:02:54.262Z,8.97
2019-03-03T03:05:42.017Z,8.47
2019-03-03T03:08:10.293Z,8.33
2019-03-03T03:10:38.354Z,7.77
2019-03-03T03:13:09.449Z,7.37
2019-03-03T03:15:40.384Z,8.17
2019-03-03T03:20:59.746Z,7.73
2019-03-03T03:23:27.854Z,8.70
2019-03-03T03:25:55.933Z,7.67
2019-03-03T03:28:26.533Z,8.60
2019-03-03T03:30:57.154Z,8.20
2019-03-03T03:33:28.214Z,8.07
2019-03-03T03:35:59.095Z,7.70
2019-03-03T03:38:27.155Z,8.70
2019-03-03T03:41:10.085Z,8.83
2019-03-03T03:43:38.133Z,8.43
2019-03-03T03:46:18.274Z,7.83
2019-03-03T03:49:03.080Z,7.70
2019-03-03T03:51:43.009Z,8.17
2019-03-03T03:54:11.181Z,8.07
2019-03-03T03:59:22.810Z,8.13
2019-03-03T04:01:50.889Z,10.00
2019-03-03T04:04:31.277Z,11.50
2019-03-03T04:07:02.305Z,12.00
2019-03-03T04:09:30.362Z,11.93
2019-03-03T04:11:58.429Z,13.33
2019-03-03T04:14:26.558Z,12.37
2019-03-03T04:17:03.357Z,12.50
2019-03-03T04:19:40.143Z,11.00
2019-03-03T04:22:14.110Z,12.87
2019-03-03T04:24:45.145Z,13.33
2019-03-03T04:27:29.555Z,12.93
2019-03-03T04:30:09.345Z,14.47
2019-03-03T04:32:49.395Z,15.37
2019-03-03T04:35:23.014Z,15.87
2019-03-03T04:38:00.169Z,16.40
2019-03-03T04:40:28.253Z,20.03
2019-03-03T04:42:56.313Z,18.90
2019-03-03T04:45:27.445Z,18.93
2019-03-03T04:48:07.438Z,18.33
2019-03-03T04:50:41.594Z,19.67
2019-03-03T04:53:27.856Z,19.07
2019-03-03T04:55:55.915Z,20.40
2019-03-03T04:58:29.608Z,20.50
2019-03-03T05:01:00.209Z,19.23
2019-03-03T05:03:37.068Z,19.87
2019-03-03T05:06:07.748Z,21.07
2019-03-03T05:08:35.820Z,19.70
2019-03-03T05:11:06.988Z,19.77
2019-03-03T05:13:37.814Z,21.80
2019-03-03T05:16:22.461Z,21.37
2019-03-03T05:18:50.516Z,15.00
2019-03-03T05:21:16.675Z,11.43
2019-03-03T05:23:42.964Z,15.30
2019-03-03T05:26:09.110Z,16.90
2019-03-03T05:28:35.278Z,14.63
2019-03-03T05:31:01.565Z,19.33
2019-03-03T05:33:27.722Z,21.13
2019-03-03T05:35:53.872Z,42.97
2019-03-03T05:38:20.068Z,15.10
2019-03-03T05:40:46.234Z,13.93
2019-03-03T05:43:12.503Z,15.20
2019-03-03T05:45:38.797Z,14.47
2019-03-03T05:48:04.998Z,13.50
2019-03-03T05:50:31.248Z,15.73
2019-03-03T05:52:57.567Z,16.73
2019-03-03T05:55:23.718Z,18.03
2019-03-03T05:57:50.102Z,16.20
2019-03-03T06:00:16.401Z,16.20
2019-03-03T06:02:42.565Z,19.13
2019-03-03T06:05:08.737Z,20.93
2019-03-03T06:07:35.031Z,25.20
2019-03-03T06:10:01.197Z,20.47
2019-03-03T06:12:27.389Z,23.23
2019-03-03T06:14:53.696Z,25.57
2019-03-03T06:17:19.859Z,17.27
2019-03-03T06:19:46.122Z,13.20
2019-03-03T06:22:12.417Z,15.23
2019-03-03T06:24:38.571Z,12.80
2019-03-03T06:27:04.735Z,13.10
2019-03-03T06:29:31.032Z,9.10
2019-03-03T06:31:57.201Z,11.07
2019-03-03T06:34:23.359Z,11.57
2019-03-03T06:36:49.565Z,12.50
2019-03-03T06:39:15.724Z,10.50
2019-03-03T06:41:41.880Z,9.60
2019-03-03T06:44:08.194Z,7.67
2019-03-03T06:46:34.354Z,7.27
2019-03-03T06:49:00.522Z,7.97
2019-03-03T06:51:26.712Z,11.07
2019-03-03T06:53:52.958Z,12.20
2019-03-03T06:56:19.224Z,10.63
2019-03-03T06:58:45.435Z,10.30
2019-03-03T07:01:11.587Z,10.70
2019-03-03T07:03:37.743Z,11.97
2019-03-03T07:06:04.030Z,10.47
2019-03-03T07:08:30.240Z,12.33
2019-03-03T07:10:56.511Z,11.63
2019-03-03T07:13:22.746Z,11.03
2019-03-03T07:15:48.933Z,16.63
2019-03-03T07:18:15.089Z,11.57
2019-03-03T07:20:41.389Z,11.63
2019-03-03T07:23:07.549Z,10.70
2019-03-03T07:25:33.816Z,11.17
2019-03-03T07:28:00.130Z,11.80
2019-03-03T07:30:26.392Z,10.93
2019-03-03T07:33:03.504Z,8.70
2019-03-03T07:35:29.709Z,11.53
2019-03-03T07:37:55.872Z,9.90
2019-03-03T07:40:22.066Z,10.83
2019-03-03T07:42:48.222Z,8.10
2019-03-03T07:45:14.485Z,11.70
2019-03-03T07:47:40.783Z,12.70
2019-03-03T07:50:07.247Z,13.43
2019-03-03T07:52:33.408Z,8.97
2019-03-03T07:54:59.607Z,6.50
2019-03-03T07:57:25.765Z,7.80
2019-03-03T07:59:52.230Z,9.73
2019-03-03T08:02:18.539Z,8.60
2019-03-03T08:04:44.696Z,9.90
2019-03-03T08:07:10.962Z,13.57
2019-03-03T08:09:41.088Z,12.70
2019-03-03T08:12:09.164Z,6.70
2019-03-03T08:14:35.386Z,7.80
2019-03-03T08:17:01.858Z,13.50
2019-03-03T08:19:28.031Z,9.17
2019-03-03T08:21:54.241Z,7.40
2019-03-03T08:24:20.501Z,8.77
2019-03-03T08:26:46.785Z,6.87
2019-03-03T08:29:12.926Z,12.17
2019-03-03T08:31:41.191Z,12.77
2019-03-03T08:34:07.360Z,14.73
2019-03-03T08:36:33.521Z,9.90
2019-03-03T08:38:59.858Z,11.23
2019-03-03T08:41:26.129Z,13.30
2019-03-03T08:43:56.985Z,16.33
2019-03-03T08:46:25.095Z,9.87
2019-03-03T08:48:53.561Z,15.87
2019-03-03T08:51:21.640Z,10.43
2019-03-03T08:54:01.524Z,20.87
2019-03-03T08:56:46.161Z,15.10
2019-03-03T08:59:14.277Z,16.63
2019-03-03T09:01:58.852Z,17.17
2019-03-03T09:04:32.522Z,15.63
2019-03-03T09:07:17.044Z,12.83
2019-03-03T09:09:47.676Z,12.87
2019-03-03T09:12:27.373Z,16.13
2019-03-03T09:15:10.622Z,15.40
2019-03-03T09:17:41.409Z,12.47
2019-03-03T09:20:10.478Z,12.47
2019-03-03T09:25:37.393Z,16.67
2019-03-03T09:28:11.221Z,15.20
2019-03-03T09:30:39.309Z,16.40
2019-03-03T09:33:07.409Z,16.23
2019-03-03T09:35:38.396Z,11.83
2019-03-03T09:38:12.340Z,11.03
2019-03-03T09:40:52.487Z,21.63
2019-03-03T09:43:20.550Z,14.80
2019-03-03T09:45:57.645Z,17.50
2019-03-03T09:48:25.712Z,10.40
2019-03-03T09:51:00.190Z,17.87
2019-03-03T09:56:27.725Z,21.20
2019-03-03T09:59:07.818Z,20.33
2019-03-03T10:01:38.705Z,16.37
2019-03-03T10:04:09.537Z,19.87
2019-03-03T10:06:43.806Z,18.03
2019-03-03T10:09:12.305Z,18.30
2019-03-03T10:11:40.394Z,15.43
2019-03-03T10:14:08.635Z,14.70
2019-03-03T10:16:36.699Z,12.57
2019-03-03T10:19:07.241Z,17.53
2019-03-03T10:21:37.385Z,20.63
2019-03-03T10:24:05.490Z,13.10
2019-03-03T10:26:35.079Z,22.47
2019-03-03T10:29:03.366Z,19.50
2019-03-03T10:31:31.426Z,19.80
2019-03-03T10:34:08.429Z,20.70
2019-03-03T10:36:45.167Z,21.67
2019-03-03T10:39:16.352Z,21.63
2019-03-03T10:41:44.412Z,24.50
2019-03-03T10:44:18.288Z,24.17
2019-03-03T10:46:48.892Z,23.17
2019-03-03T10:49:33.343Z,20.47
2019-03-03T10:52:06.965Z,16.67
2019-03-03T10:54:40.870Z,22.10
2019-03-03T10:57:25.706Z,22.47
2019-03-03T10:59:56.310Z,20.87
2019-03-03T11:02:40.639Z,18.30
2019-03-03T11:05:08.935Z,20.17
2019-03-03T11:07:53.593Z,19.10
2019-03-03T11:10:24.211Z,18.73
2019-03-03T11:12:58.325Z,26.67
2019-03-03T11:15:35.082Z,18.43
2019-03-03T11:18:08.751Z,16.17
2019-03-03T11:20:39.627Z,15.40
2019-03-03T11:23:07.684Z,25.73
2019-03-03T11:25:35.757Z,25.53
2019-03-03T11:28:23.384Z,23.77
2019-03-03T11:30:49.023Z,18.37
2019-03-03T11:33:17.120Z,20.37
2019-03-03T11:35:48.445Z,19.20
2019-03-03T11:38:19.570Z,22.03
2019-03-03T11:40:56.644Z,18.23
2019-03-03T11:43:27.302Z,20.60
2019-03-03T11:45:58.246Z,14.03
2019-03-03T11:48:38.180Z,20.67
2019-03-03T11:51:06.261Z,21.47
2019-03-03T11:53:37.356Z,21.63
2019-03-03T11:56:05.469Z,14.57
2019-03-03T11:58:48.757Z,20.80
2019-03-03T12:01:33.464Z,21.13
2019-03-03T12:04:04.559Z,21.80
2019-03-03T12:06:49.212Z,20.07
2019-03-03T12:09:19.925Z,20.07
2019-03-03T12:11:51.090Z,23.10
2019-03-03T12:14:19.159Z,21.43
2019-03-03T12:16:59.392Z,21.73
2019-03-03T12:19:33.288Z,27.00
2019-03-03T12:22:01.396Z,21.00
2019-03-03T12:24:31.996Z,20.90
2019-03-03T12:27:00.055Z,22.57
2019-03-03T12:29:36.906Z,19.30
2019-03-03T12:32:21.256Z,21.20
2019-03-03T12:34:54.988Z,19.57
2019-03-03T12:37:23.055Z,18.13
2019-03-03T12:39:51.124Z,22.23
2019-03-03T12:42:31.375Z,21.93
2019-03-03T12:45:01.968Z,22.03
2019-03-03T12:47:30.072Z,20.90
2019-03-03T12:50:06.989Z,17.53
2019-03-03T12:52:37.847Z,21.13
2019-03-03T12:55:16.565Z,21.53
2019-03-03T12:57:45.039Z,20.43
2019-03-03T13:00:22.213Z,18.30
2019-03-03T13:03:06.821Z,20.63
2019-03-03T13:05:49.783Z,19.87
2019-03-03T13:08:32.732Z,19.37
2019-03-03T13:11:03.755Z,19.60
2019-03-03T13:13:48.387Z,20.70
2019-03-03T13:16:22.063Z,21.57
2019-03-03T13:18:53.803Z,19.03
2019-03-03T13:21:21.897Z,18.57
2019-03-03T13:24:05.109Z,25.63
2019-03-03T13:26:45.177Z,27.67
2019-03-03T13:29:19.014Z,22.70
2019-03-03T13:31:55.909Z,34.90
2019-03-03T13:34:24.032Z,26.97
2019-03-03T13:36:52.121Z,14.27
2019-03-03T13:39:20.186Z,14.83
2019-03-03T13:41:54.091Z,15.07
2019-03-03T13:44:20.262Z,16.93
2019-03-03T13:46:48.002Z,13.83
2019-03-03T13:49:14.203Z,16.80
2019-03-03T13:51:40.383Z,19.03
2019-03-03T13:54:06.722Z,18.80
2019-03-03T13:56:33.373Z,21.37
2019-03-03T13:58:59.643Z,19.83
2019-03-03T14:01:25.914Z,19.13
2019-03-03T14:03:52.425Z,21.80
2019-03-03T14:06:20.429Z,22.67
2019-03-03T14:08:46.691Z,23.47
2019-03-03T14:11:12.892Z,17.63
2019-03-03T14:13:50.183Z,20.80
2019-03-03T14:16:16.379Z,18.10
2019-03-03T14:18:42.546Z,20.37
2019-03-03T14:21:08.968Z,23.43
2019-03-03T14:23:35.176Z,19.90
2019-03-03T14:26:01.460Z,21.33
2019-03-03T14:28:27.725Z,18.40
2019-03-03T14:30:54.025Z,19.73
2019-03-03T14:33:20.306Z,16.27
2019-03-03T14:35:46.426Z,18.10
2019-03-03T14:38:12.633Z,15.77
2019-03-03T14:40:38.796Z,15.23
2019-03-03T14:43:04.957Z,17.23
2019-03-03T14:45:31.156Z,17.57
2019-03-03T14:47:57.325Z,18.57
2019-03-03T14:50:23.543Z,16.13
2019-03-03T14:52:51.795Z,15.60
2019-03-03T14:55:19.075Z,16.17
2019-03-03T14:57:45.554Z,16.77
2019-03-03T15:00:26.161Z,18.03
2019-03-03T15:02:52.828Z,19.40
2019-03-03T15:05:20.278Z,20.53
2019-03-03T15:07:46.476Z,18.37
2019-03-03T15:10:12.745Z,14.77
2019-03-03T15:12:38.912Z,15.07
2019-03-03T15:15:20.197Z,17.33
2019-03-03T15:17:46.467Z,15.53
2019-03-03T15:20:13.646Z,17.37
2019-03-03T15:22:39.889Z,17.53
2019-03-03T15:25:10.676Z,18.13
2019-03-03T15:27:36.949Z,19.57
2019-03-03T15:30:06.856Z,18.23
2019-03-03T15:32:33.024Z,20.00
2019-03-03T15:34:59.192Z,19.70
2019-03-03T15:37:26.187Z,21.07
2019-03-03T15:39:52.359Z,22.30
2019-03-03T15:42:18.523Z,22.40
2019-03-03T15:44:44.821Z,19.90
2019-03-03T15:47:11.078Z,24.90
2019-03-03T15:49:37.247Z,22.93
2019-03-03T15:52:03.456Z,32.97
2019-03-03T15:54:29.730Z,36.77
2019-03-03T15:56:55.899Z,37.77
2019-03-03T15:59:22.209Z,37.73
2019-03-03T16:01:48.381Z,38.30
2019-03-03T16:04:14.553Z,49.03
2019-03-03T16:06:40.756Z,49.63
2019-03-03T16:09:07.725Z,43.07
2019-03-03T16:11:33.887Z,39.50
2019-03-03T16:14:00.084Z,45.33
2019-03-03T16:16:26.243Z,41.80
2019-03-03T16:18:52.510Z,51.43
2019-03-03T16:21:18.829Z,36.03
2019-03-03T16:23:45.912Z,41.47
2019-03-03T16:26:12.071Z,58.53
2019-03-03T16:28:38.265Z,53.67
2019-03-03T16:31:04.518Z,53.93
2019-03-03T16:33:30.796Z,50.47
2019-03-03T16:35:57.105Z,54.67
2019-03-03T16:38:23.276Z,45.90
2019-03-03T16:40:49.547Z,43.33
2019-03-03T16:43:15.842Z,40.23
2019-03-03T16:45:42.111Z,52.13
2019-03-03T16:48:08.306Z,41.37
2019-03-03T16:50:34.467Z,50.20
2019-03-03T16:53:00.747Z,51.03
2019-03-03T16:55:26.913Z,43.70
2019-03-03T16:57:53.206Z,51.27
2019-03-03T17:00:23.529Z,39.73
2019-03-03T17:02:49.696Z,83.70
2019-03-03T17:05:17.890Z,60.37
2019-03-03T17:07:44.052Z,56.17
2019-03-03T17:10:11.811Z,40.97
2019-03-03T17:12:38.505Z,40.63
2019-03-03T17:15:08.267Z,33.57
2019-03-03T17:17:34.431Z,45.93
2019-03-03T17:20:00.744Z,44.67
2019-03-03T17:22:26.901Z,45.73
2019-03-03T17:24:53.073Z,43.57
2019-03-03T17:27:19.267Z,39.53
2019-03-03T17:29:45.541Z,34.93
2019-03-03T17:32:11.702Z,47.23
2019-03-03T17:34:37.898Z,45.03
2019-03-03T17:37:04.056Z,46.40
2019-03-03T17:39:30.321Z,44.80
2019-03-03T17:41:56.620Z,46.73
2019-03-03T17:44:22.803Z,43.17
2019-03-03T17:46:48.961Z,38.13
2019-03-03T17:49:15.166Z,32.37
2019-03-03T17:51:41.320Z,33.77
2019-03-03T17:54:07.585Z,58.27
2019-03-03T17:56:33.957Z,58.97
2019-03-03T17:59:00.121Z,60.20
2019-03-03T18:01:26.380Z,62.13
2019-03-03T18:03:52.690Z,46.07
2019-03-03T18:06:19.443Z,57.03
2019-03-03T18:08:45.612Z,58.37
2019-03-03T18:11:11.805Z,54.73
2019-03-03T18:13:43.902Z,49.47
2019-03-03T18:16:10.066Z,40.53
2019-03-03T18:18:36.358Z,41.43
2019-03-03T18:21:02.816Z,39.17
2019-03-03T18:23:29.773Z,45.77
2019-03-03T18:25:56.227Z,47.57
2019-03-03T18:28:22.397Z,60.10
2019-03-03T18:30:48.558Z,71.50
2019-03-03T18:33:15.657Z,77.73
2019-03-03T18:35:41.930Z,80.33
2019-03-03T18:38:08.193Z,83.47
2019-03-03T18:40:34.395Z,78.70
2019-03-03T18:43:00.552Z,74.77
2019-03-03T18:45:26.709Z,62.27
2019-03-03T18:47:52.912Z,67.10
2019-03-03T18:50:23.565Z,66.23
2019-03-03T18:52:49.849Z,61.10
2019-03-03T18:55:16.032Z,58.13
2019-03-03T18:57:42.196Z,34.47
2019-03-03T19:00:14.639Z,29.57
2019-03-03T19:02:40.835Z,27.60
2019-03-03T19:05:07.498Z,26.27
2019-03-03T19:07:33.669Z,24.10
2019-03-03T19:09:59.857Z,24.00
2019-03-03T19:12:26.114Z,28.17
2019-03-03T19:14:52.280Z,23.87
2019-03-03T19:17:18.587Z,24.33
2019-03-03T19:19:44.886Z,21.70
2019-03-03T19:22:11.002Z,22.43
2019-03-03T19:24:37.205Z,23.63
2019-03-03T19:27:03.480Z,24.90
2019-03-03T19:29:29.635Z,23.27
2019-03-03T19:31:55.928Z,24.27
2019-03-03T19:34:22.095Z,23.27
2019-03-03T19:36:48.255Z,24.53
2019-03-03T19:39:16.189Z,24.07
2019-03-03T19:41:43.332Z,26.00
2019-03-03T19:44:11.252Z,21.47
2019-03-03T19:46:37.581Z,20.00
2019-03-03T19:49:03.745Z,17.57
2019-03-03T19:51:29.943Z,17.57
2019-03-03T19:53:56.137Z,16.70
2019-03-03T19:56:22.302Z,15.70
2019-03-03T19:58:48.886Z,15.80
2019-03-03T20:01:15.182Z,15.67
2019-03-03T20:03:41.445Z,14.60
2019-03-03T20:06:08.021Z,15.73
2019-03-03T20:08:35.215Z,14.93
2019-03-03T20:11:01.399Z,16.70
2019-03-03T20:13:27.761Z,15.37
2019-03-03T20:15:53.948Z,14.40
2019-03-03T20:18:20.162Z,15.87
2019-03-03T20:20:46.380Z,15.87
2019-03-03T20:23:12.571Z,15.17
2019-03-03T20:25:38.844Z,16.07
2019-03-03T20:28:05.054Z,14.80
2019-03-03T20:30:31.345Z,14.53
2019-03-03T20:32:57.605Z,16.03
2019-03-03T20:35:23.768Z,15.80
2019-03-03T20:37:50.367Z,16.37
2019-03-03T20:40:24.995Z,16.93
2019-03-03T20:42:52.527Z,16.80
2019-03-03T20:45:30.192Z,15.73
2019-03-03T20:47:56.590Z,16.90
2019-03-03T20:50:22.846Z,16.73
2019-03-03T20:52:49.895Z,15.07
2019-03-03T20:55:17.993Z,15.60
2019-03-03T20:57:44.153Z,15.73
2019-03-03T21:00:13.520Z,16.23
2019-03-03T21:02:39.708Z,15.10
2019-03-03T21:05:07.166Z,15.43
2019-03-03T21:07:33.738Z,14.10
2019-03-03T21:10:00.027Z,14.53
2019-03-03T21:12:26.194Z,15.17
2019-03-03T21:14:52.360Z,15.20
2019-03-03T21:17:18.549Z,15.60
2019-03-03T21:19:44.705Z,12.80
2019-03-03T21:22:10.859Z,15.17
2019-03-03T21:24:37.065Z,13.67
2019-03-03T21:27:03.216Z,13.87
2019-03-03T21:29:29.452Z,13.93
2019-03-03T21:31:55.640Z,13.40
2019-03-03T21:34:21.804Z,13.27
2019-03-03T21:36:47.968Z,13.77
2019-03-03T21:39:14.154Z,13.90
2019-03-03T21:41:40.310Z,13.57
2019-03-03T21:44:06.464Z,13.03
2019-03-03T21:46:32.753Z,13.67
2019-03-03T21:48:58.916Z,13.00
2019-03-03T21:51:25.078Z,13.10
2019-03-03T21:53:51.267Z,16.40
2019-03-03T21:56:17.633Z,16.00
2019-03-03T21:58:43.790Z,12.83
2019-03-03T22:01:09.984Z,15.30
2019-03-03T22:03:36.139Z,14.67
2019-03-03T22:06:02.397Z,12.93
2019-03-03T22:08:28.693Z,13.80
2019-03-03T22:10:54.853Z,12.50
2019-03-03T22:13:21.014Z,12.87
2019-03-03T22:15:47.216Z,12.83
2019-03-03T22:18:13.353Z,15.40
2019-03-03T22:20:39.511Z,12.63
2019-03-03T22:23:05.700Z,13.17
2019-03-03T22:25:31.859Z,13.27
2019-03-03T22:27:58.022Z,12.47
2019-03-03T22:30:24.338Z,12.80
2019-03-03T22:32:50.504Z,13.50
2019-03-03T22:35:17.255Z,13.07
2019-03-03T22:37:43.450Z,13.77
2019-03-03T22:40:17.170Z,11.80
2019-03-03T22:42:43.436Z,12.63
2019-03-03T22:45:16.589Z,12.03
2019-03-03T22:47:42.852Z,13.47
2019-03-03T22:50:16.150Z,14.50
2019-03-03T22:52:42.544Z,17.03
2019-03-03T22:55:11.808Z,20.53
2019-03-03T22:57:38.072Z,21.37
2019-03-03T23:00:28.064Z,22.27
2019-03-03T23:02:54.329Z,22.67
2019-03-03T23:05:30.364Z,22.10
2019-03-03T23:08:00.122Z,21.17
2019-03-03T23:10:34.798Z,22.17
2019-03-03T23:13:13.232Z,23.73
2019-03-03T23:15:52.311Z,24.27
2019-03-03T23:18:37.227Z,23.67
2019-03-03T23:21:13.039Z,24.20
2019-03-03T23:23:45.972Z,24.10
2019-03-03T23:26:16.570Z,25.13
2019-03-03T23:28:40.333Z,22.77
2019-03-03T23:31:06.497Z,27.00
2019-03-03T23:33:32.653Z,22.03
2019-03-03T23:35:58.841Z,27.53
2019-03-03T23:38:25.096Z,24.73
2019-03-03T23:40:51.363Z,25.47
2019-03-03T23:43:17.665Z,23.30
2019-03-03T23:45:43.831Z,26.10
2019-03-03T23:48:09.985Z,24.30
2019-03-03T23:50:36.279Z,25.30
2019-03-03T23:53:02.444Z,28.93
2019-03-03T23:55:28.601Z,28.73
2019-03-03T23:57:54.784Z,29.53
